createdAt,value
2017-12-23T00:01:23.572Z,98.33
2017-12-23T00:03:51.005Z,98.43
2017-12-23T00:06:18.414Z,98.65
2017-12-23T00:08:45.849Z,98.61
2017-12-23T00:11:13.277Z,98.81
2017-12-23T00:13:40.685Z,98.94
2017-12-23T00:16:08.107Z,98.93
2017-12-23T00:18:35.567Z,98.72
2017-12-23T00:21:02.997Z,98.43
2017-12-23T00:23:30.411Z,98.54
2017-12-23T00:25:57.850Z,98.40
2017-12-23T00:28:25.276Z,98.34
2017-12-23T00:30:52.689Z,98.35
2017-12-23T00:33:20.149Z,98.70
2017-12-23T00:35:47.570Z,98.52
2017-12-23T00:38:14.990Z,98.56
2017-12-23T00:40:42.421Z,98.37
2017-12-23T00:43:09.840Z,98.36
2017-12-23T00:45:37.251Z,98.47
2017-12-23T00:48:04.682Z,98.53
2017-12-23T00:50:32.097Z,98.41
2017-12-23T00:52:59.522Z,98.34
2017-12-23T00:55:27.004Z,98.46
2017-12-23T00:57:54.405Z,98.63
2017-12-23T01:00:21.841Z,98.71
2017-12-23T01:02:49.268Z,98.74
2017-12-23T01:05:16.698Z,98.49
2017-12-23T01:07:44.130Z,98.42
2017-12-23T01:10:11.656Z,98.42
2017-12-23T01:12:39.089Z,98.56
2017-12-23T01:15:06.494Z,98.68
2017-12-23T01:17:33.950Z,98.79
2017-12-23T01:20:01.374Z,98.95
2017-12-23T01:22:28.796Z,98.91
2017-12-23T01:24:56.321Z,98.66
2017-12-23T01:27:23.757Z,98.38
2017-12-23T01:29:51.217Z,98.68
2017-12-23T01:32:18.665Z,98.73
2017-12-23T01:34:46.078Z,98.74
2017-12-23T01:37:13.497Z,98.68
2017-12-23T01:39:40.965Z,98.57
2017-12-23T01:42:08.377Z,98.62
2017-12-23T01:44:35.797Z,98.58
2017-12-23T01:47:03.221Z,98.21
2017-12-23T01:49:30.666Z,98.01
2017-12-23T01:51:59.149Z,97.89
2017-12-23T01:54:26.641Z,97.93
2017-12-23T01:56:54.061Z,98.02
2017-12-23T01:59:21.472Z,98.12
2017-12-23T02:01:48.916Z,97.97
2017-12-23T02:04:16.384Z,97.92
2017-12-23T02:06:43.792Z,98.07
2017-12-23T02:09:11.263Z,98.05
2017-12-23T02:11:38.669Z,98.29
2017-12-23T02:14:06.085Z,98.38
2017-12-23T02:16:33.545Z,98.48
2017-12-23T02:19:00.981Z,98.64
2017-12-23T02:21:28.407Z,98.69
2017-12-23T02:23:55.853Z,98.72
2017-12-23T02:26:23.288Z,98.67
2017-12-23T02:28:50.762Z,98.37
2017-12-23T02:31:18.213Z,98.35
2017-12-23T02:33:45.648Z,98.20
2017-12-23T02:36:13.061Z,98.20
2017-12-23T02:38:40.529Z,98.06
2017-12-23T02:41:07.941Z,97.95
2017-12-23T02:43:35.400Z,98.22
2017-12-23T02:46:02.837Z,98.25
2017-12-23T02:48:30.284Z,98.30
2017-12-23T02:50:57.697Z,98.27
2017-12-23T02:53:25.181Z,98.50
2017-12-23T02:55:52.594Z,98.51
2017-12-23T02:58:20.025Z,98.69
2017-12-23T03:00:47.472Z,98.71
2017-12-23T03:03:14.897Z,98.88
2017-12-23T03:05:42.337Z,98.92
2017-12-23T03:08:09.777Z,98.79
2017-12-23T03:10:37.185Z,98.65
2017-12-23T03:13:04.598Z,98.61
2017-12-23T03:15:32.058Z,98.61
2017-12-23T03:17:59.489Z,98.84
2017-12-23T03:20:26.910Z,98.57
2017-12-23T03:22:54.378Z,98.23
2017-12-23T03:25:21.842Z,98.70
2017-12-23T03:27:49.258Z,99.44
2017-12-23T03:30:16.711Z,99.31
2017-12-23T03:32:44.204Z,99.29
2017-12-23T03:35:11.621Z,99.44
2017-12-23T03:37:39.055Z,99.21
2017-12-23T03:40:06.465Z,99.09
2017-12-23T03:42:33.911Z,99.22
2017-12-23T03:45:01.360Z,99.25
2017-12-23T03:47:28.769Z,99.30
2017-12-23T03:49:56.193Z,99.19
2017-12-23T03:52:23.617Z,99.05
2017-12-23T03:54:51.039Z,98.91
2017-12-23T03:57:18.456Z,98.93
2017-12-23T03:59:45.897Z,98.80
2017-12-23T04:02:13.311Z,98.64
2017-12-23T04:04:40.746Z,98.52
2017-12-23T04:07:08.204Z,98.47
2017-12-23T04:09:35.613Z,98.34
2017-12-23T04:12:03.050Z,98.38
2017-12-23T04:14:30.528Z,98.25
2017-12-23T04:16:57.968Z,98.40
2017-12-23T04:19:25.381Z,98.48
2017-12-23T04:21:52.853Z,98.30
2017-12-23T04:24:20.248Z,98.15
2017-12-23T04:26:48.153Z,98.06
2017-12-23T04:29:15.589Z,98.07
2017-12-23T04:31:43.033Z,98.04
2017-12-23T04:34:10.437Z,98.07
2017-12-23T04:36:37.897Z,98.05
2017-12-23T04:39:05.309Z,98.05
2017-12-23T04:41:32.732Z,97.72
2017-12-23T04:44:00.153Z,97.66
2017-12-23T04:46:27.599Z,97.52
2017-12-23T04:48:55.001Z,97.38
2017-12-23T04:51:22.423Z,97.67
2017-12-23T04:53:49.845Z,97.48
2017-12-23T04:56:17.283Z,97.26
2017-12-23T04:58:44.717Z,97.32
2017-12-23T05:01:12.345Z,97.20
2017-12-23T05:03:39.781Z,96.95
2017-12-23T05:06:07.209Z,96.99
2017-12-23T05:08:34.625Z,97.15
2017-12-23T05:11:02.061Z,97.26
2017-12-23T05:13:29.512Z,97.19
2017-12-23T05:15:56.957Z,97.24
2017-12-23T05:18:24.377Z,97.42
2017-12-23T05:20:51.818Z,97.30
2017-12-23T05:23:19.654Z,97.27
2017-12-23T05:25:47.093Z,97.35
2017-12-23T05:28:14.636Z,97.17
2017-12-23T05:30:42.080Z,97.25
2017-12-23T05:33:09.514Z,97.12
2017-12-23T05:35:37.042Z,97.33
2017-12-23T05:38:04.450Z,97.12
2017-12-23T05:40:31.881Z,97.22
2017-12-23T05:42:59.324Z,97.13
2017-12-23T05:45:26.733Z,97.21
2017-12-23T05:47:54.163Z,97.10
2017-12-23T05:50:21.629Z,97.37
2017-12-23T05:52:49.062Z,97.21
2017-12-23T05:55:16.500Z,96.97
2017-12-23T05:57:43.945Z,97.04
2017-12-23T06:00:11.366Z,97.40
2017-12-23T06:02:38.873Z,97.25
2017-12-23T06:05:06.310Z,97.52
2017-12-23T06:07:33.769Z,97.67
2017-12-23T06:10:01.216Z,97.74
2017-12-23T06:12:29.525Z,97.91
2017-12-23T06:14:56.945Z,97.89
2017-12-23T06:17:24.369Z,97.96
2017-12-23T06:19:51.814Z,97.96
2017-12-23T06:22:19.220Z,97.89
2017-12-23T06:24:46.655Z,98.37
2017-12-23T06:27:14.097Z,98.49
2017-12-23T06:29:41.517Z,98.56
2017-12-23T06:32:08.955Z,98.42
2017-12-23T06:34:36.493Z,98.31
2017-12-23T06:37:03.915Z,98.59
2017-12-23T06:39:31.340Z,98.77
2017-12-23T06:41:58.790Z,99.11
2017-12-23T06:44:26.210Z,99.07
2017-12-23T06:46:53.634Z,99.28
2017-12-23T06:49:21.070Z,99.83
2017-12-23T06:51:48.513Z,99.96
2017-12-23T06:54:15.924Z,99.78
2017-12-23T06:56:43.349Z,99.38
2017-12-23T06:59:10.768Z,99.25
2017-12-23T07:01:38.189Z,99.51
2017-12-23T07:04:05.637Z,99.43
2017-12-23T07:06:33.053Z,100.00
2017-12-23T07:09:00.514Z,99.82
2017-12-23T07:11:27.925Z,99.61
2017-12-23T07:13:55.346Z,99.51
2017-12-23T07:16:22.761Z,99.54
2017-12-23T07:18:50.190Z,99.50
2017-12-23T07:21:17.609Z,99.08
2017-12-23T07:23:45.017Z,99.11
2017-12-23T07:26:12.466Z,99.13
2017-12-23T07:28:39.861Z,98.61
2017-12-23T07:31:07.269Z,98.80
2017-12-23T07:33:34.690Z,98.58
2017-12-23T07:36:02.121Z,98.09
2017-12-23T07:38:29.534Z,98.21
2017-12-23T07:40:56.985Z,98.10
2017-12-23T07:43:24.410Z,97.92
2017-12-23T07:45:51.821Z,97.66
2017-12-23T07:48:19.269Z,97.47
2017-12-23T07:50:46.694Z,97.72
2017-12-23T07:53:14.090Z,97.47
2017-12-23T07:55:41.514Z,97.34
2017-12-23T07:58:08.986Z,97.53
2017-12-23T08:00:36.441Z,97.47
2017-12-23T08:03:03.897Z,97.49
2017-12-23T08:05:31.301Z,97.45
2017-12-23T08:07:58.713Z,97.58
2017-12-23T08:10:26.145Z,97.47
2017-12-23T08:12:53.557Z,97.26
2017-12-23T08:15:21.030Z,97.22
2017-12-23T08:17:48.493Z,97.06
2017-12-23T08:20:15.906Z,97.28
2017-12-23T08:22:43.349Z,97.25
2017-12-23T08:25:10.898Z,97.29
2017-12-23T08:27:38.307Z,97.10
2017-12-23T08:30:05.747Z,97.22
2017-12-23T08:32:33.181Z,97.15
2017-12-23T08:35:00.610Z,97.01
2017-12-23T08:37:28.006Z,96.97
2017-12-23T08:39:55.521Z,96.78
2017-12-23T08:42:22.953Z,96.69
2017-12-23T08:44:50.406Z,96.83
2017-12-23T08:47:17.822Z,96.77
2017-12-23T08:49:45.249Z,96.89
2017-12-23T08:52:12.681Z,96.71
2017-12-23T08:54:40.105Z,96.74
2017-12-23T08:57:07.934Z,96.71
2017-12-23T08:59:35.349Z,96.69
2017-12-23T09:02:02.815Z,96.69
2017-12-23T09:04:30.217Z,96.84
2017-12-23T09:06:57.644Z,96.79
2017-12-23T09:09:25.418Z,96.72
2017-12-23T09:12:02.554Z,96.38
2017-12-23T09:14:29.990Z,96.53
2017-12-23T09:16:57.486Z,96.89
2017-12-23T09:19:24.857Z,96.96
2017-12-23T09:21:55.437Z,96.92
2017-12-23T09:24:22.840Z,96.92
2017-12-23T09:26:50.257Z,97.07
2017-12-23T09:29:17.717Z,96.63
2017-12-23T09:31:45.138Z,96.67
2017-12-23T09:34:12.565Z,97.02
2017-12-23T09:36:40.208Z,97.33
2017-12-23T09:39:07.849Z,97.33
2017-12-23T09:41:35.482Z,97.23
2017-12-23T09:44:02.890Z,97.12
2017-12-23T09:46:30.301Z,96.80
2017-12-23T09:48:57.712Z,96.68
2017-12-23T09:51:25.189Z,96.88
2017-12-23T09:53:52.603Z,96.84
2017-12-23T09:56:20.029Z,97.43
2017-12-23T09:58:47.465Z,97.39
2017-12-23T10:01:14.903Z,97.21
2017-12-23T10:03:42.305Z,97.28
2017-12-23T10:06:15.845Z,97.07
2017-12-23T10:08:43.269Z,97.15
2017-12-23T10:11:10.681Z,97.20
2017-12-23T10:13:38.173Z,97.07
2017-12-23T10:16:06.371Z,97.08
2017-12-23T10:18:35.485Z,97.21
2017-12-23T10:21:02.933Z,97.24
2017-12-23T10:23:31.243Z,97.20
2017-12-23T10:25:58.662Z,96.96
2017-12-23T10:28:26.115Z,97.08
2017-12-23T10:30:53.538Z,97.16
2017-12-23T10:33:20.949Z,97.05
2017-12-23T10:35:55.369Z,97.42
2017-12-23T10:38:22.784Z,97.26
2017-12-23T10:40:50.201Z,96.88
2017-12-23T10:43:17.642Z,96.82
2017-12-23T10:45:45.054Z,96.42
2017-12-23T10:48:12.482Z,96.43
2017-12-23T10:50:39.941Z,96.53
2017-12-23T10:53:07.364Z,96.16
2017-12-23T10:55:34.787Z,96.23
2017-12-23T10:58:02.292Z,96.16
2017-12-23T11:00:29.728Z,95.79
2017-12-23T11:02:57.158Z,95.01
2017-12-23T11:05:24.605Z,95.26
2017-12-23T11:07:52.013Z,95.30
2017-12-23T11:10:19.420Z,94.87
2017-12-23T11:12:46.889Z,94.95
2017-12-23T11:15:14.297Z,95.04
2017-12-23T11:17:41.708Z,94.02
2017-12-23T11:20:09.175Z,94.08
2017-12-23T11:22:36.580Z,93.64
2017-12-23T11:25:03.989Z,94.25
2017-12-23T11:27:31.456Z,93.77
2017-12-23T11:29:58.857Z,93.65
2017-12-23T11:32:26.276Z,93.52
2017-12-23T11:34:53.700Z,93.32
2017-12-23T11:37:21.151Z,93.73
2017-12-23T11:39:48.573Z,92.99
2017-12-23T11:42:16.021Z,92.86
2017-12-23T11:44:43.437Z,93.08
2017-12-23T11:47:10.847Z,93.00
2017-12-23T11:49:38.277Z,93.78
2017-12-23T11:52:05.689Z,93.95
2017-12-23T11:54:33.109Z,94.39
2017-12-23T11:57:00.560Z,94.43
2017-12-23T11:59:27.961Z,95.16
2017-12-23T12:01:55.394Z,95.12
2017-12-23T12:04:22.822Z,94.07
2017-12-23T12:06:50.250Z,93.51
2017-12-23T12:09:17.664Z,92.99
2017-12-23T12:11:45.122Z,93.62
2017-12-23T12:14:12.578Z,92.39
2017-12-23T12:16:39.961Z,92.69
2017-12-23T12:19:07.376Z,92.08
2017-12-23T12:21:34.798Z,90.72
2017-12-23T12:24:02.219Z,90.81
2017-12-23T12:26:29.694Z,90.97
2017-12-23T12:28:57.148Z,91.34
2017-12-23T12:31:24.561Z,91.23
2017-12-23T12:33:52.110Z,91.58
2017-12-23T12:36:19.552Z,91.61
2017-12-23T12:38:46.963Z,91.75
2017-12-23T12:41:14.421Z,91.70
2017-12-23T12:43:41.866Z,91.26
2017-12-23T12:46:09.278Z,91.67
2017-12-23T12:48:36.797Z,91.47
2017-12-23T12:51:04.201Z,91.67
2017-12-23T12:53:31.685Z,91.75
2017-12-23T12:55:59.192Z,92.01
2017-12-23T12:58:26.601Z,91.52
2017-12-23T13:00:54.013Z,91.76
2017-12-23T13:03:21.485Z,91.74
2017-12-23T13:05:48.902Z,92.06
2017-12-23T13:08:16.321Z,92.06
2017-12-23T13:10:43.733Z,91.79
2017-12-23T13:13:11.141Z,91.92
2017-12-23T13:15:38.563Z,92.03
2017-12-23T13:18:05.984Z,91.93
2017-12-23T13:20:33.406Z,91.64
2017-12-23T13:23:00.813Z,91.95
2017-12-23T13:25:28.313Z,92.01
2017-12-23T13:27:55.737Z,92.10
2017-12-23T13:30:23.196Z,92.07
2017-12-23T13:32:50.634Z,92.03
2017-12-23T13:35:18.046Z,92.14
2017-12-23T13:37:45.464Z,92.17
2017-12-23T13:40:12.986Z,92.41
2017-12-23T13:42:40.392Z,92.41
2017-12-23T13:45:07.807Z,92.58
2017-12-23T13:47:35.257Z,92.55
2017-12-23T13:50:02.675Z,92.50
2017-12-23T13:52:30.097Z,92.67
2017-12-23T13:54:57.526Z,92.55
2017-12-23T13:57:24.982Z,92.60
2017-12-23T13:59:52.393Z,92.56
2017-12-23T14:02:19.829Z,92.59
2017-12-23T14:04:47.244Z,92.78
2017-12-23T14:07:14.654Z,92.92
2017-12-23T14:09:42.109Z,92.77
2017-12-23T14:12:09.526Z,92.38
2017-12-23T14:14:36.955Z,92.17
2017-12-23T14:17:04.382Z,92.63
2017-12-23T14:19:31.797Z,92.17
2017-12-23T14:22:01.098Z,92.52
2017-12-23T14:24:28.540Z,92.74
2017-12-23T14:26:55.982Z,92.45
2017-12-23T14:29:23.393Z,92.60
2017-12-23T14:31:50.807Z,92.64
2017-12-23T14:34:18.220Z,92.28
2017-12-23T14:36:45.666Z,92.78
2017-12-23T14:39:13.102Z,92.59
2017-12-23T14:41:40.526Z,92.73
2017-12-23T14:44:07.953Z,92.86
2017-12-23T14:46:35.506Z,92.59
2017-12-23T14:49:02.933Z,92.56
2017-12-23T14:51:30.350Z,91.95
2017-12-23T14:53:57.786Z,91.71
2017-12-23T14:56:25.200Z,91.68
2017-12-23T14:58:52.620Z,91.44
2017-12-23T15:01:20.073Z,91.13
2017-12-23T15:03:47.496Z,90.98
2017-12-23T15:06:14.917Z,91.01
2017-12-23T15:08:42.387Z,91.01
2017-12-23T15:11:09.795Z,91.25
2017-12-23T15:13:37.209Z,91.04
2017-12-23T15:16:04.632Z,91.13
2017-12-23T15:18:32.045Z,91.44
2017-12-23T15:20:59.455Z,91.42
2017-12-23T15:23:26.892Z,91.44
2017-12-23T15:25:54.321Z,91.51
2017-12-23T15:28:21.752Z,91.40
2017-12-23T15:30:49.181Z,91.45
2017-12-23T15:33:16.605Z,91.31
2017-12-23T15:35:44.017Z,91.54
2017-12-23T15:38:11.452Z,91.48
2017-12-23T15:40:38.861Z,91.81
2017-12-23T15:43:06.284Z,91.71
2017-12-23T15:45:33.767Z,91.76
2017-12-23T15:48:02.133Z,91.27
2017-12-23T15:50:29.553Z,90.94
2017-12-23T15:52:57.097Z,91.05
2017-12-23T15:55:24.510Z,90.73
2017-12-23T15:57:51.929Z,90.33
2017-12-23T16:00:19.392Z,89.95
2017-12-23T16:02:46.844Z,90.03
2017-12-23T16:05:14.253Z,90.10
2017-12-23T16:07:41.700Z,90.17
2017-12-23T16:10:09.113Z,89.97
2017-12-23T16:12:36.527Z,90.11
2017-12-23T16:15:03.948Z,90.44
2017-12-23T16:17:31.421Z,90.70
2017-12-23T16:19:58.837Z,90.72
2017-12-23T16:22:26.302Z,90.46
2017-12-23T16:24:53.717Z,90.55
2017-12-23T16:27:21.141Z,90.13
2017-12-23T16:29:48.550Z,90.24
2017-12-23T16:32:15.961Z,90.10
2017-12-23T16:34:43.377Z,90.23
2017-12-23T16:37:10.937Z,90.38
2017-12-23T16:39:38.420Z,90.36
2017-12-23T16:42:05.881Z,90.61
2017-12-23T16:44:33.309Z,90.65
2017-12-23T16:47:00.722Z,90.30
2017-12-23T16:49:28.136Z,89.99
2017-12-23T16:51:55.598Z,89.70
2017-12-23T16:54:23.005Z,89.52
2017-12-23T16:56:50.413Z,89.52
2017-12-23T16:59:17.887Z,89.46
2017-12-23T17:01:45.290Z,89.40
2017-12-23T17:04:13.487Z,89.32
2017-12-23T17:06:40.935Z,89.20
2017-12-23T17:09:08.338Z,88.90
2017-12-23T17:11:37.716Z,88.61
2017-12-23T17:14:05.281Z,88.22
2017-12-23T17:16:32.714Z,87.96
2017-12-23T17:19:00.159Z,88.11
2017-12-23T17:21:27.929Z,87.74
2017-12-23T17:23:59.766Z,87.99
2017-12-23T17:26:27.241Z,87.50
2017-12-23T17:31:59.448Z,87.84
2017-12-23T17:34:26.854Z,87.60
2017-12-23T17:36:54.265Z,87.15
2017-12-23T17:39:21.748Z,87.37
2017-12-23T17:41:49.165Z,87.40
2017-12-23T17:44:16.577Z,87.10
2017-12-23T17:46:44.017Z,87.17
2017-12-23T17:49:11.429Z,87.15
2017-12-23T17:51:38.839Z,86.91
2017-12-23T17:54:06.270Z,87.16
2017-12-23T17:56:33.685Z,86.77
2017-12-23T17:59:01.095Z,86.74
2017-12-23T18:01:28.524Z,86.69
2017-12-23T18:03:55.934Z,86.44
2017-12-23T18:06:23.364Z,86.62
2017-12-23T18:08:50.786Z,86.57
2017-12-23T18:11:18.202Z,86.54
2017-12-23T18:13:45.614Z,86.67
2017-12-23T18:16:13.061Z,86.46
2017-12-23T18:18:40.468Z,86.52
2017-12-23T18:21:07.877Z,86.66
2017-12-23T18:23:35.308Z,86.57
2017-12-23T18:26:02.741Z,86.33
2017-12-23T18:28:30.265Z,86.49
2017-12-23T18:30:57.721Z,86.35
2017-12-23T18:33:25.838Z,86.31
2017-12-23T18:35:53.361Z,86.36
2017-12-23T18:38:21.663Z,86.43
2017-12-23T18:40:49.072Z,86.34
2017-12-23T18:43:16.528Z,86.29
2017-12-23T18:45:44.121Z,86.08
2017-12-23T18:48:11.534Z,86.30
2017-12-23T18:50:41.693Z,86.30
2017-12-23T18:53:09.114Z,86.24
2017-12-23T18:55:37.175Z,86.45
2017-12-23T18:58:04.633Z,86.57
2017-12-23T19:00:32.781Z,86.48
2017-12-23T19:03:00.717Z,86.23
2017-12-23T19:05:28.193Z,86.36
2017-12-23T19:07:56.796Z,86.34
2017-12-23T19:10:24.321Z,86.18
2017-12-23T19:12:52.505Z,86.40
2017-12-23T19:15:25.788Z,86.20
2017-12-23T19:17:53.202Z,86.13
2017-12-23T19:20:21.057Z,86.05
2017-12-23T19:22:48.579Z,86.19
2017-12-23T19:25:16.013Z,86.14
2017-12-23T19:27:43.537Z,86.23
2017-12-23T19:30:10.969Z,86.17
2017-12-23T19:32:38.497Z,86.16
2017-12-23T19:35:06.637Z,86.29
2017-12-23T19:37:34.369Z,86.28
2017-12-23T19:40:01.810Z,86.17
2017-12-23T19:42:29.226Z,86.02
2017-12-23T19:44:56.769Z,86.10
2017-12-23T19:47:26.237Z,85.95
2017-12-23T19:49:54.616Z,85.95
2017-12-23T19:52:23.089Z,86.05
2017-12-23T19:54:50.545Z,86.25
2017-12-23T19:57:18.885Z,85.87
2017-12-23T19:59:46.362Z,86.04
2017-12-23T20:02:13.778Z,86.30
2017-12-23T20:04:41.199Z,86.69
2017-12-23T20:07:08.730Z,86.67
2017-12-23T20:09:38.122Z,86.70
2017-12-23T20:12:06.948Z,86.59
2017-12-23T20:14:34.418Z,86.65
2017-12-23T20:17:01.826Z,86.60
2017-12-23T20:19:29.937Z,86.64
2017-12-23T20:21:57.405Z,86.35
2017-12-23T20:24:24.824Z,86.87
2017-12-23T20:26:53.309Z,86.51
2017-12-23T20:29:20.821Z,86.57
2017-12-23T20:31:48.242Z,86.74
2017-12-23T20:34:17.806Z,86.91
2017-12-23T20:36:46.417Z,86.68
2017-12-23T20:39:13.971Z,86.62
2017-12-23T20:41:42.230Z,86.70
2017-12-23T20:44:09.783Z,86.60
2017-12-23T20:46:37.201Z,86.63
2017-12-23T20:49:04.753Z,86.55
2017-12-23T20:54:06.818Z,86.77
2017-12-23T20:56:35.362Z,86.77
2017-12-23T20:59:02.780Z,86.44
2017-12-23T21:01:31.135Z,86.89
2017-12-23T21:03:58.649Z,86.99
2017-12-23T21:06:26.069Z,87.29
2017-12-23T21:08:53.486Z,87.20
2017-12-23T21:11:20.922Z,87.26
2017-12-23T21:13:48.330Z,87.08
2017-12-23T21:16:15.737Z,87.08
2017-12-23T21:18:43.176Z,87.14
2017-12-23T21:21:10.597Z,87.41
2017-12-23T21:23:38.009Z,87.37
2017-12-23T21:26:05.436Z,87.36
2017-12-23T21:28:32.865Z,87.52
2017-12-23T21:31:00.289Z,87.33
2017-12-23T21:33:27.730Z,87.36
2017-12-23T21:35:55.141Z,87.23
2017-12-23T21:38:22.557Z,87.05
2017-12-23T21:40:49.989Z,87.10
2017-12-23T21:43:17.425Z,87.02
2017-12-23T21:45:44.833Z,86.79
2017-12-23T21:48:12.294Z,86.90
2017-12-23T21:50:39.717Z,87.00
2017-12-23T21:53:07.125Z,87.08
2017-12-23T21:55:34.685Z,87.11
2017-12-23T21:58:02.110Z,86.99
2017-12-23T22:00:29.517Z,86.94
2017-12-23T22:02:56.992Z,86.62
2017-12-23T22:05:24.411Z,86.67
2017-12-23T22:07:51.833Z,86.61
2017-12-23T22:10:19.249Z,86.69
2017-12-23T22:12:46.669Z,86.92
2017-12-23T22:15:14.081Z,86.92
2017-12-23T22:17:41.524Z,87.58
2017-12-23T22:20:08.949Z,87.29
2017-12-23T22:22:36.361Z,87.56
2017-12-23T22:25:03.789Z,87.25
2017-12-23T22:27:31.205Z,87.42
2017-12-23T22:29:58.646Z,87.50
2017-12-23T22:32:26.161Z,87.68
2017-12-23T22:34:53.581Z,87.21
2017-12-23T22:37:21.010Z,87.25
2017-12-23T22:39:48.565Z,87.61
2017-12-23T22:42:28.395Z,87.56
2017-12-23T22:44:55.821Z,87.36
2017-12-23T22:47:23.275Z,87.40
2017-12-23T22:49:50.677Z,87.35
2017-12-23T22:52:18.202Z,87.36
2017-12-23T22:54:45.612Z,87.64
2017-12-23T22:57:13.021Z,87.58
2017-12-23T22:59:40.460Z,88.02
2017-12-23T23:02:07.885Z,87.95
2017-12-23T23:04:35.301Z,88.04
2017-12-23T23:07:02.721Z,87.94
2017-12-23T23:09:30.142Z,87.94
2017-12-23T23:11:57.557Z,88.00
2017-12-23T23:14:25.073Z,87.88
2017-12-23T23:16:52.512Z,87.98
2017-12-23T23:19:19.917Z,88.04
2017-12-23T23:21:47.342Z,88.04
2017-12-23T23:24:14.761Z,88.15
2017-12-23T23:26:42.171Z,87.93
2017-12-23T23:29:09.597Z,87.91
2017-12-23T23:31:37.017Z,88.03
2017-12-23T23:34:04.417Z,87.84
2017-12-23T23:36:31.874Z,87.88
2017-12-23T23:38:59.298Z,87.90
2017-12-23T23:41:26.701Z,88.39
2017-12-23T23:43:54.147Z,88.43
2017-12-23T23:46:21.553Z,89.04
2017-12-23T23:48:48.981Z,88.71
2017-12-23T23:51:16.426Z,88.82
2017-12-23T23:53:43.845Z,88.77
2017-12-23T23:56:11.277Z,88.96
2017-12-23T23:58:38.711Z,88.88
